Time;durP1;ratioP1;P1;durP2;ratioP2;P2;SDS_P1;SDS_P2;PMS_P1;PMS_P2;Temp;Humidity;BMP_temperature;BMP_pressure;BME280_temperature;BME280_humidity;BME280_pressure;Samples;Min_cycle;Max_cycle;Signal;HPM_P1;HPM_P2
2024/02/26 00:02:17;;;;;;;4.93;4.00;;;9.80;81.50;;;;;;4830482;29;20117;-82
2024/02/26 00:04:44;;;;;;;4.88;3.83;;;9.80;81.60;;;;;;4811213;29;20034;-82
2024/02/26 00:07:09;;;;;;;4.63;3.70;;;9.80;81.50;;;;;;4814534;29;20027;-82
2024/02/26 00:09:37;;;;;;;4.82;3.97;;;9.80;81.50;;;;;;4814972;29;20562;-93
2024/02/26 00:12:03;;;;;;;5.05;4.07;;;9.80;81.50;;;;;;4809018;29;20046;-89
2024/02/26 00:14:32;;;;;;;4.55;3.78;;;9.80;81.50;;;;;;4819036;29;20033;-82
2024/02/26 00:16:57;;;;;;;4.82;4.10;;;9.80;81.50;;;;;;4801209;29;20038;-83
2024/02/26 00:19:23;;;;;;;4.80;4.18;;;9.80;81.60;;;;;;4834323;29;20026;-82
2024/02/26 00:21:49;;;;;;;4.97;4.10;;;9.80;81.50;;;;;;4825900;29;20038;-90
2024/02/26 00:24:14;;;;;;;4.70;3.97;;;9.70;81.50;;;;;;4806062;29;20027;-89
2024/02/26 00:26:41;;;;;;;4.57;3.67;;;9.70;81.50;;;;;;4817173;29;20065;-94
2024/02/26 00:29:10;;;;;;;4.80;4.05;;;9.70;81.50;;;;;;4808940;29;20117;-83
2024/02/26 00:31:38;;;;;;;5.25;3.95;;;9.70;81.50;;;;;;4817198;29;20088;-82
2024/02/26 00:34:04;;;;;;;4.60;3.75;;;9.70;81.50;;;;;;4810896;29;20147;-95
2024/02/26 00:36:31;;;;;;;4.60;3.60;;;9.70;81.50;;;;;;4807068;29;20030;-82
2024/02/26 00:38:57;;;;;;;5.03;3.63;;;9.70;81.50;;;;;;4823810;29;20029;-94
2024/02/26 00:41:23;;;;;;;5.00;3.85;;;9.70;81.50;;;;;;4808563;29;20030;-94
2024/02/26 00:43:49;;;;;;;5.53;3.70;;;9.70;81.50;;;;;;4807266;29;20126;-82
2024/02/26 00:46:15;;;;;;;5.63;3.72;;;9.70;81.50;;;;;;4805104;29;20485;-84
2024/02/26 00:48:40;;;;;;;4.50;3.70;;;9.70;81.60;;;;;;4806725;29;20041;-88
2024/02/26 00:51:07;;;;;;;4.65;3.85;;;9.70;81.60;;;;;;4782703;29;20100;-89
2024/02/26 00:53:34;;;;;;;4.57;3.90;;;9.60;81.60;;;;;;4806241;29;20030;-82
2024/02/26 00:56:01;;;;;;;4.38;3.92;;;9.60;81.50;;;;;;4774935;29;20049;-89
2024/02/26 00:58:27;;;;;;;4.93;4.13;;;9.60;81.50;;;;;;4811311;29;20036;-89
2024/02/26 01:00:53;;;;;;;4.88;3.78;;;9.60;81.50;;;;;;4820558;29;20121;-94
2024/02/26 01:03:19;;;;;;;5.05;4.03;;;9.60;81.50;;;;;;4818233;29;20076;-83
2024/02/26 01:05:45;;;;;;;5.43;4.22;;;9.60;81.40;;;;;;4808196;29;20496;-83
2024/02/26 01:08:11;;;;;;;5.68;4.20;;;9.60;81.50;;;;;;4791751;29;20071;-83
2024/02/26 01:10:37;;;;;;;4.47;3.80;;;9.60;81.50;;;;;;4826596;29;20031;-81
2024/02/26 01:13:02;;;;;;;5.25;4.20;;;9.50;81.40;;;;;;4818529;29;20045;-89
2024/02/26 01:15:28;;;;;;;6.38;5.22;;;9.50;81.40;;;;;;4829406;29;20951;-82
2024/02/26 01:17:55;;;;;;;5.15;3.97;;;9.50;81.40;;;;;;4829058;29;20037;-83
2024/02/26 01:20:20;;;;;;;5.65;4.20;;;9.50;81.40;;;;;;4827005;29;20026;-83
2024/02/26 01:22:50;;;;;;;5.30;4.07;;;9.50;81.50;;;;;;4802000;29;20488;-93
2024/02/26 01:25:16;;;;;;;4.68;4.07;;;9.50;81.50;;;;;;4826105;29;20067;-83
2024/02/26 01:27:43;;;;;;;5.53;3.97;;;9.50;81.50;;;;;;4817543;29;20122;-83
2024/02/26 01:30:16;;;;;;;5.40;4.20;;;9.50;81.50;;;;;;4809352;29;20036;-89
2024/02/26 01:32:43;;;;;;;4.30;3.85;;;9.50;81.60;;;;;;4817666;29;20035;-82
2024/02/26 01:35:11;;;;;;;4.88;4.07;;;9.50;81.60;;;;;;4808769;29;20534;-83
2024/02/26 01:37:37;;;;;;;4.80;3.90;;;9.50;81.60;;;;;;4813971;29;20568;-95
2024/02/26 01:40:06;;;;;;;4.30;3.50;;;9.50;81.60;;;;;;4828782;29;20053;-95
2024/02/26 01:42:38;;;;;;;4.43;3.45;;;9.50;81.60;;;;;;4827325;29;20042;-89
2024/02/26 01:45:07;;;;;;;4.68;3.80;;;9.50;81.60;;;;;;4810624;29;20564;-95
2024/02/26 01:47:32;;;;;;;4.32;3.75;;;9.40;81.50;;;;;;4801031;29;20146;-83
2024/02/26 01:49:59;;;;;;;4.70;3.63;;;9.50;81.60;;;;;;4811740;29;20050;-89
2024/02/26 01:52:24;;;;;;;4.60;3.60;;;9.40;81.60;;;;;;4802830;29;20034;-94
2024/02/26 01:54:51;;;;;;;4.28;3.58;;;9.40;81.60;;;;;;4803521;29;20042;-95
2024/02/26 01:57:21;;;;;;;5.95;4.00;;;9.40;81.60;;;;;;4809106;29;20031;-82
2024/02/26 01:59:47;;;;;;;4.65;3.45;;;9.50;81.70;;;;;;4818474;29;20041;-82
2024/02/26 02:02:16;;;;;;;4.10;3.60;;;9.40;81.60;;;;;;4818321;29;20495;-82
2024/02/26 02:04:47;;;;;;;4.80;3.33;;;9.40;81.60;;;;;;4822610;29;20037;-81
2024/02/26 02:07:13;;;;;;;3.67;3.15;;;9.40;81.60;;;;;;4812809;29;20042;-95
2024/02/26 02:09:39;;;;;;;4.55;3.45;;;9.40;81.60;;;;;;4809950;29;20113;-83
2024/02/26 02:12:06;;;;;;;4.70;3.50;;;9.40;81.60;;;;;;4800751;29;20034;-82
2024/02/26 02:14:32;;;;;;;4.55;3.60;;;9.40;81.60;;;;;;4814963;29;20109;-88
2024/02/26 02:16:58;;;;;;;5.10;3.28;;;9.50;81.60;;;;;;4795212;29;20057;-83
2024/02/26 02:19:25;;;;;;;5.20;3.72;;;9.40;81.60;;;;;;4813094;29;20038;-82
2024/02/26 02:21:52;;;;;;;4.75;3.58;;;9.40;81.60;;;;;;4813952;29;20093;-82
2024/02/26 02:24:18;;;;;;;5.05;3.58;;;9.40;81.60;;;;;;4793546;29;20058;-81
2024/02/26 02:26:44;;;;;;;4.72;3.65;;;9.50;81.60;;;;;;4800428;29;20050;-82
2024/02/26 02:29:12;;;;;;;5.15;3.78;;;9.40;81.60;;;;;;4794296;29;20069;-89
2024/02/26 02:31:38;;;;;;;5.57;3.50;;;9.40;81.60;;;;;;4805102;29;20035;-89
2024/02/26 02:34:04;;;;;;;4.72;3.75;;;9.40;81.60;;;;;;4818544;29;20129;-83
2024/02/26 02:36:30;;;;;;;5.07;3.70;;;9.40;81.70;;;;;;4805486;29;20031;-95
2024/02/26 02:38:56;;;;;;;5.22;4.05;;;9.40;81.70;;;;;;4818998;29;20041;-93
2024/02/26 02:41:22;;;;;;;5.30;3.70;;;9.40;81.60;;;;;;4808230;29;20030;-81
2024/02/26 02:43:51;;;;;;;4.72;3.65;;;9.40;81.60;;;;;;4814483;29;21776;-82
2024/02/26 02:46:16;;;;;;;4.50;3.80;;;9.40;81.60;;;;;;4790985;29;20513;-82
2024/02/26 02:48:43;;;;;;;5.03;3.85;;;9.40;81.60;;;;;;4809137;29;20093;-89
2024/02/26 02:51:09;;;;;;;6.00;4.18;;;9.40;81.60;;;;;;4800010;29;20091;-88
2024/02/26 02:53:36;;;;;;;5.25;4.35;;;9.40;81.60;;;;;;4804782;29;20026;-83
2024/02/26 02:56:02;;;;;;;4.53;3.85;;;9.40;81.60;;;;;;4825718;29;20136;-83
2024/02/26 02:58:28;;;;;;;5.97;4.15;;;9.40;81.60;;;;;;4823390;29;20034;-95
2024/02/26 03:00:55;;;;;;;5.63;4.10;;;9.40;81.60;;;;;;4807239;29;20023;-82
2024/02/26 03:03:21;;;;;;;4.47;3.75;;;9.40;81.60;;;;;;4788683;29;20046;-83
2024/02/26 03:05:51;;;;;;;5.05;4.15;;;9.40;81.60;;;;;;4816946;29;20034;-83
2024/02/26 03:08:19;;;;;;;5.25;3.92;;;9.40;81.60;;;;;;4813456;29;20035;-92
2024/02/26 03:10:45;;;;;;;5.45;4.00;;;9.40;81.60;;;;;;4796013;29;20128;-94
2024/02/26 03:13:17;;;;;;;5.30;4.22;;;9.40;81.60;;;;;;4788491;29;20144;-94
2024/02/26 03:15:43;;;;;;;5.75;4.40;;;9.40;81.60;;;;;;4818666;29;20037;-81
2024/02/26 03:18:10;;;;;;;4.93;4.00;;;9.40;81.60;;;;;;4804023;29;20051;-84
2024/02/26 03:20:37;;;;;;;6.40;4.45;;;9.40;81.60;;;;;;4815597;29;20137;-83
2024/02/26 03:23:04;;;;;;;5.25;4.38;;;9.40;81.50;;;;;;4808326;29;20122;-89
2024/02/26 03:25:29;;;;;;;5.00;3.95;;;9.40;81.50;;;;;;4806865;29;20030;-89
2024/02/26 03:27:57;;;;;;;5.55;4.25;;;9.40;81.60;;;;;;4822139;29;20038;-89
2024/02/26 03:30:23;;;;;;;5.20;4.20;;;9.40;81.60;;;;;;4789640;29;20045;-83
2024/02/26 03:32:50;;;;;;;5.00;3.70;;;9.40;81.60;;;;;;4801874;29;20034;-82
2024/02/26 03:35:16;;;;;;;5.20;4.03;;;9.40;81.60;;;;;;4819213;29;20342;-89
2024/02/26 03:37:42;;;;;;;5.07;4.15;;;9.40;81.60;;;;;;4806183;29;20050;-96
2024/02/26 03:40:09;;;;;;;5.10;4.13;;;9.30;81.50;;;;;;4808920;29;20126;-95
2024/02/26 03:42:34;;;;;;;6.32;4.30;;;9.30;81.50;;;;;;4789466;29;20035;-95
2024/02/26 03:45:01;;;;;;;5.25;4.47;;;9.30;81.50;;;;;;4793182;29;20038;-83
2024/02/26 03:47:27;;;;;;;5.40;3.88;;;9.30;81.60;;;;;;4807026;29;20487;-95
2024/02/26 03:49:53;;;;;;;5.55;4.10;;;9.30;81.60;;;;;;4814727;29;20030;-95
2024/02/26 03:52:19;;;;;;;4.75;3.78;;;9.30;81.60;;;;;;4807053;29;20045;-94
2024/02/26 03:54:45;;;;;;;4.57;3.70;;;9.40;81.60;;;;;;4803403;29;20035;-95
2024/02/26 03:57:11;;;;;;;5.28;4.10;;;9.30;81.60;;;;;;4802332;29;20052;-82
2024/02/26 03:59:39;;;;;;;4.93;3.92;;;9.30;81.60;;;;;;4806871;29;20027;-94
2024/02/26 04:02:06;;;;;;;5.10;4.10;;;9.30;81.60;;;;;;4821644;29;20500;-95
2024/02/26 04:04:35;;;;;;;5.45;4.15;;;9.30;81.60;;;;;;4802562;29;20035;-93
2024/02/26 04:07:02;;;;;;;5.30;4.30;;;9.40;81.60;;;;;;4809731;29;20033;-83
2024/02/26 04:09:31;;;;;;;5.40;4.00;;;9.30;81.50;;;;;;4821856;29;20090;-93
2024/02/26 04:11:57;;;;;;;4.70;3.80;;;9.30;81.60;;;;;;4801038;29;20043;-83
2024/02/26 04:14:26;;;;;;;4.95;3.75;;;9.30;81.60;;;;;;4811024;29;20200;-83
2024/02/26 04:16:54;;;;;;;4.63;4.05;;;9.30;81.60;;;;;;4824618;29;20037;-88
2024/02/26 04:19:20;;;;;;;5.07;4.03;;;9.30;81.60;;;;;;4806870;29;20121;-88
2024/02/26 04:21:46;;;;;;;4.45;3.65;;;9.30;81.60;;;;;;4802009;29;20550;-81
2024/02/26 04:24:12;;;;;;;4.63;3.80;;;9.30;81.70;;;;;;4806654;29;20042;-88
2024/02/26 04:26:38;;;;;;;5.00;3.90;;;9.30;81.60;;;;;;4791812;29;20038;-81
2024/02/26 04:29:03;;;;;;;4.57;3.75;;;9.30;81.60;;;;;;4789903;29;20042;-82
2024/02/26 04:31:31;;;;;;;5.00;3.90;;;9.30;81.60;;;;;;4805047;29;20377;-94
2024/02/26 04:33:57;;;;;;;4.97;3.83;;;9.30;81.60;;;;;;4801412;29;20030;-88
2024/02/26 04:36:23;;;;;;;4.55;3.78;;;9.30;81.60;;;;;;4782813;29;20038;-83
2024/02/26 04:38:49;;;;;;;4.80;4.00;;;9.30;81.60;;;;;;4820210;29;20049;-81
2024/02/26 04:41:14;;;;;;;4.75;3.80;;;9.30;81.70;;;;;;4786283;29;20031;-88
2024/02/26 04:43:43;;;;;;;6.40;3.72;;;9.30;81.70;;;;;;4791415;29;20094;-94
2024/02/26 04:46:10;;;;;;;4.78;3.70;;;9.30;81.70;;;;;;4806104;29;20099;-82
2024/02/26 04:48:41;;;;;;;4.40;3.63;;;9.30;81.70;;;;;;4803444;29;20034;-82
2024/02/26 04:51:07;;;;;;;4.25;3.60;;;9.30;81.70;;;;;;4789379;29;20793;-88
2024/02/26 04:53:34;;;;;;;5.50;3.65;;;9.30;81.70;;;;;;4805330;29;20403;-92
2024/02/26 04:56:00;;;;;;;5.00;3.67;;;9.30;81.70;;;;;;4800687;29;20102;-83
2024/02/26 04:58:26;;;;;;;5.63;4.00;;;9.30;81.70;;;;;;4791092;29;20042;-94
2024/02/26 05:00:52;;;;;;;4.88;3.92;;;9.30;81.70;;;;;;4808380;29;20035;-89
2024/02/26 05:03:18;;;;;;;5.05;4.13;;;9.30;81.60;;;;;;4814262;29;20031;-95
2024/02/26 05:05:45;;;;;;;5.43;3.83;;;9.30;81.60;;;;;;4794398;29;20041;-82
2024/02/26 05:08:12;;;;;;;5.53;4.10;;;9.30;81.60;;;;;;4814106;29;20476;-81
2024/02/26 05:10:39;;;;;;;4.65;3.85;;;9.30;81.60;;;;;;4808620;29;20047;-89
2024/02/26 05:13:06;;;;;;;5.55;4.18;;;9.30;81.60;;;;;;4807156;29;20042;-83
2024/02/26 05:15:32;;;;;;;5.68;4.45;;;9.30;81.60;;;;;;4820277;29;20027;-83
2024/02/26 05:17:58;;;;;;;5.32;4.00;;;9.30;81.60;;;;;;4806688;29;20026;-83
2024/02/26 05:20:25;;;;;;;5.03;4.30;;;9.30;81.60;;;;;;4821868;29;20031;-82
2024/02/26 05:22:51;;;;;;;5.28;4.55;;;9.30;81.60;;;;;;4818679;29;20222;-81
2024/02/26 05:25:17;;;;;;;5.38;3.97;;;9.30;81.60;;;;;;4822481;29;20039;-83
2024/02/26 05:27:44;;;;;;;5.53;4.30;;;9.30;81.50;;;;;;4792357;29;20049;-81
2024/02/26 05:30:10;;;;;;;5.13;4.18;;;9.30;81.60;;;;;;4818267;29;20029;-88
2024/02/26 05:32:36;;;;;;;5.13;4.10;;;9.30;81.60;;;;;;4802354;29;20059;-89
2024/02/26 05:35:04;;;;;;;5.20;3.95;;;9.30;81.60;;;;;;4799680;29;20546;-81
2024/02/26 05:37:30;;;;;;;5.25;3.97;;;9.30;81.60;;;;;;4826539;29;20062;-87
2024/02/26 05:39:59;;;;;;;5.95;4.32;;;9.30;81.60;;;;;;4808595;29;20122;-83
2024/02/26 05:42:25;;;;;;;5.13;4.25;;;9.30;81.50;;;;;;4827120;29;20040;-83
2024/02/26 05:44:52;;;;;;;5.10;4.20;;;9.30;81.50;;;;;;4812237;29;20039;-82
2024/02/26 05:47:21;;;;;;;5.40;3.95;;;9.30;81.50;;;;;;4808718;29;20050;-91
2024/02/26 05:49:46;;;;;;;5.30;4.20;;;9.20;81.50;;;;;;4792791;29;20387;-83
2024/02/26 05:52:12;;;;;;;5.63;4.00;;;9.20;81.50;;;;;;4824783;29;20042;-82
2024/02/26 05:54:39;;;;;;;5.72;4.35;;;9.20;81.50;;;;;;4810060;29;20045;-87
2024/02/26 05:57:05;;;;;;;5.50;4.07;;;9.20;81.60;;;;;;4814527;29;20038;-82
2024/02/26 05:59:31;;;;;;;5.50;3.95;;;9.20;81.60;;;;;;4806770;29;20039;-83
2024/02/26 06:01:57;;;;;;;5.68;4.30;;;9.20;81.60;;;;;;4800401;29;20034;-89
2024/02/26 06:04:23;;;;;;;5.28;4.10;;;9.20;81.60;;;;;;4801119;29;20114;-83
2024/02/26 06:06:49;;;;;;;5.65;4.38;;;9.20;81.50;;;;;;4808773;29;20068;-86
2024/02/26 06:09:16;;;;;;;5.05;4.05;;;9.30;81.60;;;;;;4806482;29;20089;-82
2024/02/26 06:11:42;;;;;;;4.97;4.10;;;9.20;81.60;;;;;;4820135;29;20049;-89
2024/02/26 06:14:12;;;;;;;5.20;3.95;;;9.30;81.60;;;;;;4803035;29;20030;-88
2024/02/26 06:16:38;;;;;;;5.53;4.18;;;9.20;81.60;;;;;;4788244;29;20042;-85
2024/02/26 06:19:04;;;;;;;5.55;4.25;;;9.20;81.60;;;;;;4802350;29;20034;-89
2024/02/26 06:21:34;;;;;;;5.45;4.40;;;9.20;81.60;;;;;;4808891;29;20082;-82
2024/02/26 06:23:59;;;;;;;5.30;4.22;;;9.20;81.60;;;;;;4801118;29;20054;-81
2024/02/26 06:26:28;;;;;;;6.53;4.32;;;9.20;81.60;;;;;;4790764;29;20038;-82
2024/02/26 06:28:54;;;;;;;5.70;4.38;;;9.20;81.60;;;;;;4821385;29;20080;-81
2024/02/26 06:31:24;;;;;;;7.30;4.70;;;9.20;81.60;;;;;;4808993;29;20100;-81
2024/02/26 06:33:51;;;;;;;5.47;4.00;;;9.20;81.50;;;;;;4823588;29;20560;-91
2024/02/26 06:36:17;;;;;;;5.90;4.60;;;9.20;81.50;;;;;;4824202;29;20372;-81
2024/02/26 06:38:44;;;;;;;5.60;4.28;;;9.20;81.60;;;;;;4806787;29;20031;-81
2024/02/26 06:41:11;;;;;;;5.40;4.20;;;9.20;81.60;;;;;;4819411;29;20213;-82
2024/02/26 06:43:37;;;;;;;5.68;4.60;;;9.20;81.60;;;;;;4792892;29;20125;-82
2024/02/26 06:46:03;;;;;;;5.47;4.50;;;9.20;81.60;;;;;;4803595;29;20059;-90
2024/02/26 06:48:29;;;;;;;5.80;4.75;;;9.20;81.60;;;;;;4802193;29;20090;-89
2024/02/26 06:50:55;;;;;;;5.07;4.03;;;9.20;81.60;;;;;;4798558;29;20580;-90
2024/02/26 06:53:22;;;;;;;5.15;4.22;;;9.20;81.60;;;;;;4827825;29;20034;-81
2024/02/26 06:55:49;;;;;;;5.53;4.50;;;9.20;81.60;;;;;;4790248;29;20087;-89
2024/02/26 06:58:15;;;;;;;5.28;4.38;;;9.20;81.60;;;;;;4821539;29;20064;-89
2024/02/26 07:00:41;;;;;;;5.32;4.18;;;9.20;81.60;;;;;;4807205;29;20035;-81
2024/02/26 07:03:07;;;;;;;5.55;4.53;;;9.10;81.60;;;;;;4801445;29;20102;-81
2024/02/26 07:05:33;;;;;;;5.30;4.63;;;9.10;81.60;;;;;;4829222;29;20029;-90
2024/02/26 07:08:00;;;;;;;5.85;4.70;;;9.10;81.60;;;;;;4794145;29;20121;-86
2024/02/26 07:10:26;;;;;;;5.80;4.68;;;9.10;81.60;;;;;;4798020;29;20047;-86
2024/02/26 07:12:54;;;;;;;6.00;4.53;;;9.10;81.60;;;;;;4806231;29;20407;-86
2024/02/26 07:15:21;;;;;;;5.72;4.65;;;9.10;81.60;;;;;;4789168;29;20026;-86
2024/02/26 07:17:48;;;;;;;5.63;4.45;;;9.10;81.60;;;;;;4805481;29;20026;-82
2024/02/26 07:20:14;;;;;;;5.60;4.53;;;9.10;81.60;;;;;;4802819;29;20047;-82
2024/02/26 07:22:42;;;;;;;5.80;4.80;;;9.10;81.60;;;;;;4787401;29;20114;-83
2024/02/26 07:25:08;;;;;;;5.55;4.70;;;9.10;81.60;;;;;;4799918;29;20410;-83
2024/02/26 07:27:34;;;;;;;5.72;4.82;;;9.10;81.70;;;;;;4785398;29;20095;-83
2024/02/26 07:30:00;;;;;;;5.85;4.95;;;9.10;81.60;;;;;;4800319;29;20066;-89
2024/02/26 07:32:26;;;;;;;6.85;5.47;;;9.10;81.60;;;;;;4827213;29;20107;-83
2024/02/26 07:34:52;;;;;;;6.72;5.50;;;9.10;81.70;;;;;;4796011;29;20050;-88
2024/02/26 07:37:20;;;;;;;7.95;5.05;;;9.10;81.70;;;;;;4812513;29;20034;-90
2024/02/26 07:39:47;;;;;;;6.07;4.85;;;9.10;81.70;;;;;;4828562;29;20045;-82
2024/02/26 07:42:14;;;;;;;7.07;5.60;;;9.10;81.70;;;;;;4788351;29;20130;-82
2024/02/26 07:44:42;;;;;;;6.38;5.15;;;9.10;81.70;;;;;;4785323;29;20019;-89
2024/02/26 07:47:09;;;;;;;6.57;5.07;;;9.10;81.70;;;;;;4806871;29;20042;-83
2024/02/26 07:49:35;;;;;;;6.57;5.30;;;9.10;81.70;;;;;;4795401;29;20035;-88
2024/02/26 07:52:02;;;;;;;6.30;5.40;;;9.10;81.70;;;;;;4804067;29;20043;-88
2024/02/26 07:54:28;;;;;;;6.38;5.07;;;9.00;81.80;;;;;;4811346;29;20478;-82
2024/02/26 07:56:54;;;;;;;6.47;5.40;;;9.00;81.80;;;;;;4795963;29;20488;-82
2024/02/26 07:59:21;;;;;;;7.10;5.75;;;9.00;81.80;;;;;;4820792;29;20037;-81
2024/02/26 08:01:51;;;;;;;6.53;5.18;;;9.00;81.80;;;;;;4825944;29;20038;-82
2024/02/26 08:04:17;;;;;;;7.88;5.45;;;9.00;81.80;;;;;;4824766;29;20030;-82
2024/02/26 08:06:44;;;;;;;6.45;4.95;;;9.00;81.80;;;;;;4811928;29;20098;-83
2024/02/26 08:09:12;;;;;;;7.95;6.43;;;9.00;81.80;;;;;;4805351;29;20090;-83
2024/02/26 08:11:39;;;;;;;7.82;6.10;;;9.00;81.80;;;;;;4789032;29;20059;-91
2024/02/26 08:14:28;;;;;;;8.02;6.47;;;9.00;81.80;;;;;;4806731;29;20125;-82
2024/02/26 08:16:55;;;;;;;8.48;6.43;;;9.00;81.80;;;;;;4783919;29;20051;-91
2024/02/26 08:19:21;;;;;;;7.93;6.15;;;9.00;81.90;;;;;;4782828;29;20073;-91
2024/02/26 08:21:47;;;;;;;7.80;6.35;;;9.00;81.90;;;;;;4773868;29;20066;-81
2024/02/26 08:24:13;;;;;;;7.72;6.38;;;9.00;81.80;;;;;;4770603;29;20051;-87
2024/02/26 08:26:40;;;;;;;8.18;6.60;;;9.00;81.90;;;;;;4789790;29;20092;-82
2024/02/26 08:29:05;;;;;;;8.10;6.63;;;9.00;81.80;;;;;;4804377;29;20121;-83
2024/02/26 08:31:31;;;;;;;9.70;6.78;;;9.00;81.90;;;;;;4800320;29;20054;-82
2024/02/26 08:33:58;;;;;;;8.48;7.05;;;9.00;81.90;;;;;;4803805;29;20164;-87
2024/02/26 08:36:26;;;;;;;7.50;6.35;;;9.00;81.90;;;;;;4797235;29;20037;-87
2024/02/26 08:38:51;;;;;;;10.18;7.10;;;9.00;82.00;;;;;;4790715;29;20528;-82
2024/02/26 08:41:17;;;;;;;9.32;7.30;;;9.00;82.00;;;;;;4788613;29;20051;-92
2024/02/26 08:43:43;;;;;;;9.88;7.20;;;9.00;82.00;;;;;;4783989;29;20187;-87
2024/02/26 08:46:10;;;;;;;9.00;7.35;;;9.00;81.90;;;;;;4786552;29;20027;-87
2024/02/26 08:48:36;;;;;;;8.98;6.65;;;9.00;81.90;;;;;;4816850;29;20058;-87
2024/02/26 08:51:06;;;;;;;9.27;7.13;;;9.00;81.90;;;;;;4823212;29;20057;-81
2024/02/26 08:53:32;;;;;;;9.40;7.07;;;9.00;82.00;;;;;;4808453;29;20037;-83
2024/02/26 08:56:01;;;;;;;9.23;7.50;;;9.00;81.90;;;;;;4809576;29;20036;-82
2024/02/26 08:58:29;;;;;;;8.40;6.60;;;9.00;82.00;;;;;;4805654;29;20463;-91
2024/02/26 09:00:56;;;;;;;9.00;7.53;;;9.00;82.00;;;;;;4824876;29;20410;-87
2024/02/26 09:03:23;;;;;;;9.73;6.95;;;9.00;82.00;;;;;;4800130;29;20023;-82
2024/02/26 09:05:50;;;;;;;9.85;7.47;;;9.00;82.00;;;;;;4809065;29;20042;-86
2024/02/26 09:08:15;;;;;;;9.93;7.55;;;9.00;82.00;;;;;;4783587;29;20034;-82
2024/02/26 09:10:41;;;;;;;10.15;7.32;;;9.00;82.00;;;;;;4806217;29;20029;-87
2024/02/26 09:13:08;;;;;;;8.98;6.82;;;9.00;82.00;;;;;;4814205;29;20025;-82
2024/02/26 09:15:34;;;;;;;9.48;7.40;;;9.00;82.00;;;;;;4823968;29;20030;-82
2024/02/26 09:18:02;;;;;;;9.75;7.53;;;9.00;82.00;;;;;;4809221;29;20039;-82
2024/02/26 09:20:28;;;;;;;8.70;7.15;;;9.00;82.00;;;;;;4806062;29;20042;-82
2024/02/26 09:22:57;;;;;;;10.05;7.68;;;9.00;82.00;;;;;;4810406;29;20058;-82
2024/02/26 09:25:23;;;;;;;10.25;7.65;;;9.00;82.10;;;;;;4825621;29;20060;-82
2024/02/26 09:27:50;;;;;;;11.02;7.40;;;9.00;82.10;;;;;;4798960;29;20522;-82
2024/02/26 09:30:18;;;;;;;9.38;7.28;;;9.00;82.10;;;;;;4817051;29;20031;-87
2024/02/26 09:32:47;;;;;;;12.13;8.25;;;9.00;82.10;;;;;;4822820;29;20053;-82
2024/02/26 09:35:13;;;;;;;10.15;7.20;;;9.00;82.10;;;;;;4807672;29;20026;-93
2024/02/26 09:37:39;;;;;;;10.77;7.80;;;9.00;82.10;;;;;;4809126;29;20034;-87
2024/02/26 09:40:11;;;;;;;9.85;7.55;;;9.00;82.10;;;;;;4809268;29;20034;-86
2024/02/26 09:42:42;;;;;;;10.38;7.43;;;9.00;82.10;;;;;;4794950;29;20030;-86
2024/02/26 09:45:12;;;;;;;10.57;7.90;;;9.00;82.10;;;;;;4806802;29;20027;-86
2024/02/26 09:47:42;;;;;;;10.60;7.63;;;9.00;82.10;;;;;;4793504;29;20054;-82
2024/02/26 09:50:09;;;;;;;10.68;7.88;;;9.00;82.10;;;;;;4818727;29;20034;-82
2024/02/26 09:52:38;;;;;;;11.65;8.02;;;9.00;82.10;;;;;;4791298;29;20404;-87
2024/02/26 09:55:08;;;;;;;10.68;8.10;;;9.00;82.10;;;;;;4806561;29;20058;-82
2024/02/26 09:57:34;;;;;;;11.00;8.48;;;9.00;82.10;;;;;;4773002;29;20059;-83
2024/02/26 10:00:05;;;;;;;11.90;8.18;;;9.00;82.10;;;;;;4805505;29;20134;-91
2024/02/26 10:02:36;;;;;;;11.50;8.18;;;9.00;82.20;;;;;;4814586;29;20031;-83
2024/02/26 10:05:07;;;;;;;11.20;7.80;;;9.00;82.10;;;;;;4823295;29;20453;-82
2024/02/26 10:07:34;;;;;;;10.85;7.90;;;9.10;82.20;;;;;;4825699;29;20103;-82
2024/02/26 10:10:02;;;;;;;10.65;8.10;;;9.00;82.20;;;;;;4819481;29;20091;-81
2024/02/26 10:12:31;;;;;;;10.95;7.82;;;9.00;82.10;;;;;;4783279;29;20039;-83
2024/02/26 10:14:56;;;;;;;11.15;8.32;;;9.00;82.30;;;;;;4819640;29;20074;-82
2024/02/26 10:17:23;;;;;;;10.85;8.05;;;9.10;82.20;;;;;;4823746;29;20106;-86
2024/02/26 10:19:51;;;;;;;11.07;7.93;;;9.10;82.20;;;;;;4793291;29;20083;-82
2024/02/26 10:22:17;;;;;;;11.00;7.95;;;9.10;82.20;;;;;;4813209;29;20026;-82
2024/02/26 10:24:43;;;;;;;10.77;8.02;;;9.10;82.20;;;;;;4793065;29;20030;-83
2024/02/26 10:27:14;;;;;;;10.15;7.57;;;9.10;82.20;;;;;;4810941;29;20170;-86
2024/02/26 10:29:42;;;;;;;11.88;8.35;;;9.10;82.20;;;;;;4788791;29;20032;-87
2024/02/26 10:32:09;;;;;;;10.77;8.05;;;9.10;82.20;;;;;;4805640;29;20034;-83
2024/02/26 10:34:37;;;;;;;10.45;7.35;;;9.10;82.20;;;;;;4788929;29;20083;-83
2024/02/26 10:37:05;;;;;;;10.90;7.80;;;9.10;82.20;;;;;;4805063;29;20054;-83
2024/02/26 10:39:32;;;;;;;10.80;7.72;;;9.10;82.20;;;;;;4817673;29;20104;-82
2024/02/26 10:42:04;;;;;;;10.48;7.60;;;9.10;82.20;;;;;;4809282;29;20050;-82
2024/02/26 10:44:31;;;;;;;11.75;8.10;;;9.10;82.20;;;;;;4798335;29;20050;-92
2024/02/26 10:46:59;;;;;;;10.52;7.90;;;9.10;82.20;;;;;;4802915;29;20403;-83
2024/02/26 10:49:25;;;;;;;9.23;7.25;;;9.10;82.20;;;;;;4823422;29;20484;-83
2024/02/26 10:51:57;;;;;;;10.55;7.70;;;9.10;82.20;;;;;;4801136;29;20042;-86
2024/02/26 10:54:25;;;;;;;11.73;8.27;;;9.10;82.20;;;;;;4825642;29;20026;-86
2024/02/26 10:57:13;;;;;;;10.02;7.40;;;9.10;82.30;;;;;;4802443;29;20042;-87
2024/02/26 10:59:42;;;;;;;10.10;7.70;;;9.10;82.30;;;;;;4815485;29;20043;-84
2024/02/26 11:02:11;;;;;;;10.45;7.65;;;9.10;82.30;;;;;;4796941;29;20038;-84
2024/02/26 11:04:49;;;;;;;9.85;7.32;;;9.10;82.30;;;;;;4799659;29;20076;-83
2024/02/26 11:07:17;;;;;;;10.40;7.53;;;9.10;82.30;;;;;;4804375;29;20452;-90
2024/02/26 11:09:46;;;;;;;11.40;7.80;;;9.10;82.30;;;;;;4800792;29;20035;-89
2024/02/26 11:12:13;;;;;;;10.98;7.30;;;9.20;82.30;;;;;;4812017;29;20457;-83
2024/02/26 11:14:46;;;;;;;10.63;7.63;;;9.10;82.30;;;;;;4800156;29;20042;-83
2024/02/26 11:17:16;;;;;;;10.18;7.22;;;9.20;82.40;;;;;;4801042;29;20050;-90
2024/02/26 11:19:44;;;;;;;10.57;7.50;;;9.20;82.40;;;;;;4801481;29;20090;-83
2024/02/26 11:22:10;;;;;;;9.88;7.70;;;9.20;82.40;;;;;;4795548;29;20054;-84
2024/02/26 11:24:41;;;;;;;9.80;7.72;;;9.20;82.30;;;;;;4798457;29;20038;-90
2024/02/26 11:27:09;;;;;;;10.00;7.85;;;9.20;82.30;;;;;;4809672;29;20067;-87
2024/02/26 11:29:41;;;;;;;9.93;7.93;;;9.20;82.30;;;;;;4797710;29;20038;-84
2024/02/26 11:32:08;;;;;;;10.68;7.55;;;9.20;82.30;;;;;;4791548;29;20067;-83
2024/02/26 11:34:34;;;;;;;8.82;7.10;;;9.20;82.30;;;;;;4803091;29;20066;-91
2024/02/26 11:37:15;;;;;;;10.80;7.88;;;9.20;82.30;;;;;;4805785;29;20038;-90
2024/02/26 11:39:41;;;;;;;10.85;7.82;;;9.20;82.30;;;;;;4779320;29;20512;-92
2024/02/26 11:42:09;;;;;;;8.85;7.10;;;9.20;82.30;;;;;;4787636;29;20568;-85
2024/02/26 11:44:36;;;;;;;10.20;7.88;;;9.20;82.30;;;;;;4813223;29;20047;-95
2024/02/26 11:47:18;;;;;;;10.05;7.30;;;9.20;82.30;;;;;;4791900;29;20038;-86
2024/02/26 11:49:45;;;;;;;9.85;7.45;;;9.20;82.30;;;;;;4827373;29;20030;-89
2024/02/26 11:52:11;;;;;;;9.32;7.20;;;9.20;82.30;;;;;;4797051;29;20037;-84
2024/02/26 11:54:56;;;;;;;10.23;7.82;;;9.20;82.30;;;;;;4810243;29;20087;-87
2024/02/26 11:57:32;;;;;;;10.10;7.35;;;9.20;82.30;;;;;;4821630;29;20106;-87
2024/02/26 12:00:12;;;;;;;9.57;7.30;;;9.20;82.30;;;;;;4821621;29;20035;-86
2024/02/26 12:02:57;;;;;;;8.65;6.90;;;9.30;82.40;;;;;;4808276;29;20023;-93
2024/02/26 12:05:28;;;;;;;9.00;6.93;;;9.30;82.40;;;;;;4798979;29;20031;-88
2024/02/26 12:08:09;;;;;;;9.95;7.50;;;9.20;82.30;;;;;;4806263;29;20391;-87
2024/02/26 12:10:38;;;;;;;9.52;7.28;;;9.30;82.40;;;;;;4803035;29;20121;-92
2024/02/26 12:13:14;;;;;;;8.90;6.93;;;9.20;82.40;;;;;;4815716;29;20137;-92
2024/02/26 12:15:44;;;;;;;10.65;7.80;;;9.30;82.40;;;;;;4801557;29;20051;-92
2024/02/26 12:18:16;;;;;;;9.45;7.22;;;9.30;82.40;;;;;;4804131;29;20030;-83
2024/02/26 12:20:43;;;;;;;8.85;6.97;;;9.30;82.40;;;;;;4808524;29;20114;-83
2024/02/26 12:23:15;;;;;;;9.55;7.13;;;9.30;82.40;;;;;;4803300;29;20063;-87
2024/02/26 12:25:43;;;;;;;11.35;7.35;;;9.30;82.40;;;;;;4809706;29;20038;-90
2024/02/26 12:28:10;;;;;;;8.63;7.00;;;9.30;82.40;;;;;;4811570;29;20042;-88
2024/02/26 12:30:37;;;;;;;10.85;7.13;;;9.30;82.40;;;;;;4806542;29;20492;-85
2024/02/26 12:33:06;;;;;;;9.75;6.90;;;9.30;82.40;;;;;;4802726;29;20186;-88
2024/02/26 12:35:34;;;;;;;8.80;6.65;;;9.30;82.40;;;;;;4807064;29;20027;-94
2024/02/26 12:38:05;;;;;;;8.63;6.68;;;9.30;82.40;;;;;;4828309;29;20399;-84
2024/02/26 12:40:31;;;;;;;9.35;7.00;;;9.30;82.40;;;;;;4789291;29;20034;-87
2024/02/26 12:43:03;;;;;;;9.45;6.93;;;9.30;82.40;;;;;;4812049;29;20042;-84
2024/02/26 12:45:29;;;;;;;7.40;5.88;;;9.30;82.40;;;;;;4806605;29;20041;-90
2024/02/26 12:47:56;;;;;;;7.95;6.15;;;9.30;82.40;;;;;;4811874;29;20132;-88
2024/02/26 12:50:21;;;;;;;8.02;6.18;;;9.30;82.40;;;;;;4822735;29;20560;-87
2024/02/26 12:52:53;;;;;;;8.30;6.20;;;9.30;82.40;;;;;;4794244;29;20066;-88
2024/02/26 12:55:21;;;;;;;8.07;6.20;;;9.40;82.40;;;;;;4804668;29;20127;-83
2024/02/26 12:57:51;;;;;;;8.00;6.20;;;9.30;82.40;;;;;;4811869;29;20121;-87